createdAt,value
2023-03-26T00:01:58.577Z,11.85
2023-03-26T00:04:28.343Z,11.86
2023-03-26T00:06:57.447Z,11.89
2023-03-26T00:09:25.962Z,11.85
2023-03-26T00:11:54.367Z,11.90
2023-03-26T00:14:22.900Z,11.93
2023-03-26T00:16:51.264Z,11.87
2023-03-26T00:19:20.104Z,11.81
2023-03-26T00:21:48.890Z,11.80
2023-03-26T00:24:17.669Z,11.75
2023-03-26T00:26:53.558Z,11.70
2023-03-26T00:29:23.189Z,11.66
2023-03-26T00:31:51.722Z,11.65
2023-03-26T00:34:20.932Z,11.67
2023-03-26T00:36:54.541Z,11.64
2023-03-26T00:39:24.257Z,11.60
2023-03-26T00:41:54.758Z,11.61
2023-03-26T00:44:23.592Z,11.64
2023-03-26T00:46:52.160Z,11.70
2023-03-26T00:49:20.445Z,11.70
2023-03-26T00:51:48.627Z,11.66
2023-03-26T00:54:17.738Z,11.66
2023-03-26T00:56:47.004Z,11.67
2023-03-26T00:59:16.032Z,11.68
2023-03-26T01:01:44.993Z,11.67
2023-03-26T01:04:24.522Z,11.63
2023-03-26T01:06:54.443Z,11.63
2023-03-26T01:09:27.068Z,11.65
2023-03-26T01:11:55.763Z,11.61
2023-03-26T01:14:25.471Z,11.53
2023-03-26T01:16:55.346Z,11.49
2023-03-26T01:19:34.164Z,11.46
2023-03-26T01:22:02.915Z,11.45
2023-03-26T01:24:31.497Z,11.40
2023-03-26T01:27:18.703Z,11.33
2023-03-26T01:30:01.963Z,11.34
2023-03-26T01:32:44.226Z,11.34
2023-03-26T01:35:21.444Z,11.34
2023-03-26T01:38:15.693Z,11.30
2023-03-26T01:41:13.040Z,11.22
2023-03-26T01:44:10.691Z,11.15
2023-03-26T01:46:39.952Z,11.11
2023-03-26T01:49:13.524Z,11.11
2023-03-26T01:51:42.874Z,11.11
2023-03-26T01:54:13.329Z,11.05
2023-03-26T01:56:44.502Z,11.00
2023-03-26T01:59:12.553Z,10.94
2023-03-26T02:01:46.284Z,10.88
2023-03-26T02:04:26.683Z,10.81
2023-03-26T02:07:02.220Z,10.73
2023-03-26T02:09:32.769Z,10.67
2023-03-26T02:12:03.908Z,10.61
2023-03-26T02:14:32.634Z,10.55
2023-03-26T02:17:01.020Z,10.51
2023-03-26T02:19:30.227Z,10.48
2023-03-26T02:22:00.147Z,10.44
2023-03-26T02:24:29.456Z,10.38
2023-03-26T02:27:02.443Z,10.28
2023-03-26T02:29:31.229Z,10.20
2023-03-26T02:32:02.424Z,10.16
2023-03-26T02:34:31.286Z,10.13
2023-03-26T02:36:59.548Z,10.06
2023-03-26T02:39:27.933Z,9.96
2023-03-26T02:41:58.713Z,9.90
2023-03-26T02:44:27.666Z,9.84
2023-03-26T02:47:22.269Z,9.78
2023-03-26T02:49:53.504Z,9.74
2023-03-26T02:52:26.592Z,9.70
2023-03-26T02:54:57.335Z,9.67
2023-03-26T02:57:26.747Z,9.65
2023-03-26T03:00:02.701Z,9.58
2023-03-26T03:02:39.019Z,9.53
2023-03-26T03:05:38.348Z,9.48
2023-03-26T03:08:26.657Z,9.46
2023-03-26T03:11:11.346Z,9.46
2023-03-26T03:13:44.858Z,9.48
2023-03-26T03:16:13.890Z,9.48
2023-03-26T03:18:42.432Z,9.46
2023-03-26T03:21:10.520Z,9.45
2023-03-26T03:23:38.641Z,9.43
2023-03-26T03:26:15.735Z,9.40
2023-03-26T03:28:49.998Z,9.35
2023-03-26T03:31:19.260Z,9.35
2023-03-26T03:33:47.694Z,9.34
2023-03-26T03:36:20.566Z,9.33
2023-03-26T03:39:02.929Z,9.31
2023-03-26T03:41:32.194Z,9.31
2023-03-26T03:44:02.298Z,9.28
2023-03-26T03:46:33.509Z,9.25
2023-03-26T03:49:02.550Z,9.22
2023-03-26T03:51:35.340Z,9.15
2023-03-26T03:54:06.173Z,9.07
2023-03-26T03:56:51.482Z,8.98
2023-03-26T03:59:25.762Z,8.95
2023-03-26T04:01:54.043Z,8.91
2023-03-26T04:04:33.036Z,8.86
2023-03-26T04:07:05.170Z,8.84
2023-03-26T04:09:41.813Z,8.82
2023-03-26T04:12:16.463Z,8.79
2023-03-26T04:15:04.673Z,8.77
2023-03-26T04:17:33.626Z,8.78
2023-03-26T04:20:07.077Z,8.79
2023-03-26T04:22:36.795Z,8.82
2023-03-26T04:25:08.040Z,8.86
2023-03-26T04:27:46.369Z,8.91
2023-03-26T04:30:20.790Z,8.94
2023-03-26T04:33:06.727Z,8.96
2023-03-26T04:35:41.895Z,9.00
2023-03-26T04:38:11.528Z,9.04
2023-03-26T04:40:43.479Z,9.07
2023-03-26T04:43:12.777Z,9.12
2023-03-26T04:46:03.063Z,9.12
2023-03-26T04:48:32.989Z,9.14
2023-03-26T04:51:01.879Z,9.08
2023-03-26T04:53:30.471Z,8.94
2023-03-26T04:56:38.262Z,8.84
2023-03-26T04:59:30.284Z,8.81
2023-03-26T05:02:00.345Z,8.79
2023-03-26T05:04:29.940Z,8.87
2023-03-26T05:06:58.808Z,8.99
2023-03-26T05:09:44.371Z,9.10
2023-03-26T05:12:15.221Z,9.15
2023-03-26T05:15:05.276Z,9.12
2023-03-26T05:18:09.261Z,9.05
2023-03-26T05:20:57.606Z,8.95
2023-03-26T05:23:27.134Z,8.88
2023-03-26T05:26:07.780Z,8.86
2023-03-26T05:28:37.144Z,8.84
2023-03-26T05:31:18.596Z,8.85
2023-03-26T05:33:48.768Z,8.89
2023-03-26T05:36:17.443Z,8.94
2023-03-26T05:38:52.500Z,9.02
2023-03-26T05:41:39.272Z,9.13
2023-03-26T05:44:07.636Z,9.28
2023-03-26T05:46:36.180Z,9.42
2023-03-26T05:49:04.812Z,9.54
2023-03-26T05:51:35.441Z,9.64
2023-03-26T05:54:22.448Z,9.78
2023-03-26T05:57:09.461Z,9.91
2023-03-26T05:59:56.719Z,9.94
2023-03-26T06:02:43.604Z,9.94
2023-03-26T06:05:34.580Z,9.95
2023-03-26T06:08:11.459Z,9.90
2023-03-26T06:10:40.772Z,9.85
2023-03-26T06:13:09.557Z,9.78
2023-03-26T06:15:40.917Z,9.65
2023-03-26T06:18:27.047Z,9.63
2023-03-26T06:21:34.165Z,9.65
2023-03-26T06:24:10.539Z,9.65
2023-03-26T06:26:38.612Z,9.59
2023-03-26T06:29:43.116Z,9.48
2023-03-26T06:32:20.596Z,9.39
2023-03-26T06:34:55.340Z,9.39
2023-03-26T06:37:23.827Z,9.46
2023-03-26T06:39:57.974Z,9.55
2023-03-26T06:43:07.707Z,9.72
2023-03-26T06:45:55.813Z,9.85
2023-03-26T06:48:33.500Z,9.93
2023-03-26T06:51:13.777Z,9.90
2023-03-26T06:54:20.718Z,9.89
2023-03-26T06:57:05.359Z,9.94
2023-03-26T06:59:52.392Z,9.96
2023-03-26T07:02:39.626Z,9.91
2023-03-26T07:05:43.307Z,10.00
2023-03-26T07:08:31.832Z,10.15
2023-03-26T07:11:39.002Z,10.30
2023-03-26T07:14:16.608Z,10.46
2023-03-26T07:16:55.524Z,10.55
2023-03-26T07:19:47.347Z,10.70
2023-03-26T07:22:23.640Z,10.82
2023-03-26T07:25:14.127Z,10.93
2023-03-26T07:28:13.396Z,11.09
2023-03-26T07:31:07.677Z,11.18
2023-03-26T07:34:04.217Z,11.28
2023-03-26T07:36:47.511Z,11.41
2023-03-26T07:39:55.981Z,11.49
2023-03-26T07:42:51.922Z,11.64
2023-03-26T07:45:46.434Z,11.68
2023-03-26T07:48:48.144Z,11.65
2023-03-26T07:51:37.092Z,11.68
2023-03-26T07:54:17.773Z,11.77
2023-03-26T07:57:08.833Z,11.88
2023-03-26T08:00:01.959Z,11.95
2023-03-26T08:03:07.291Z,11.92
2023-03-26T08:06:09.513Z,11.79
2023-03-26T08:08:54.154Z,11.72
2023-03-26T08:11:57.634Z,11.78
2023-03-26T08:14:44.847Z,11.70
2023-03-26T08:17:22.229Z,11.63
2023-03-26T08:19:50.517Z,11.64
2023-03-26T08:22:34.461Z,11.68
2023-03-26T08:25:02.526Z,11.85
2023-03-26T08:27:31.118Z,12.03
2023-03-26T08:30:19.378Z,12.18
2023-03-26T08:32:56.527Z,12.35
2023-03-26T08:35:26.107Z,12.66
2023-03-26T08:37:54.750Z,12.85
2023-03-26T08:40:38.992Z,12.97
2023-03-26T08:43:17.192Z,13.19
2023-03-26T08:46:02.525Z,13.57
2023-03-26T08:48:42.720Z,13.79
2023-03-26T08:51:18.590Z,13.94
2023-03-26T08:54:03.745Z,14.18
2023-03-26T08:56:40.353Z,14.40
2023-03-26T08:59:19.250Z,14.71
2023-03-26T09:02:02.624Z,14.99
2023-03-26T09:04:49.443Z,15.24
2023-03-26T09:07:32.490Z,15.40
2023-03-26T09:10:19.904Z,15.34
2023-03-26T09:12:51.488Z,15.03
2023-03-26T09:15:38.993Z,15.09
2023-03-26T09:18:07.613Z,15.11
2023-03-26T09:20:54.932Z,15.03
2023-03-26T09:23:43.126Z,14.98
2023-03-26T09:26:11.417Z,14.90
2023-03-26T09:28:41.140Z,14.83
2023-03-26T09:31:12.079Z,14.71
2023-03-26T09:34:00.414Z,14.68
2023-03-26T09:37:02.763Z,14.71
2023-03-26T09:39:57.190Z,14.67
2023-03-26T09:42:43.434Z,14.85
2023-03-26T09:45:18.073Z,14.95
2023-03-26T09:47:59.140Z,15.07
2023-03-26T09:50:35.796Z,15.16
2023-03-26T09:53:13.201Z,15.25
2023-03-26T09:55:57.521Z,15.33
2023-03-26T09:58:25.932Z,15.33
2023-03-26T10:01:06.005Z,15.42
2023-03-26T10:03:38.708Z,15.42
2023-03-26T10:06:22.906Z,15.48
2023-03-26T10:08:50.996Z,15.60
2023-03-26T10:11:38.410Z,15.66
2023-03-26T10:14:17.945Z,15.89
2023-03-26T10:17:05.340Z,16.24
2023-03-26T10:19:49.201Z,16.80
2023-03-26T10:22:20.967Z,17.22
2023-03-26T10:25:08.477Z,17.38
2023-03-26T10:27:42.794Z,17.48
2023-03-26T10:30:17.016Z,17.60
2023-03-26T10:32:54.412Z,18.16
2023-03-26T10:35:23.025Z,18.52
2023-03-26T10:38:10.509Z,18.36
2023-03-26T10:40:51.794Z,17.83
2023-03-26T10:43:26.413Z,17.45
2023-03-26T10:46:13.857Z,17.38
2023-03-26T10:48:51.527Z,17.28
2023-03-26T10:51:36.814Z,17.36
2023-03-26T10:54:30.668Z,17.56
2023-03-26T10:57:01.175Z,17.67
2023-03-26T10:59:30.806Z,17.58
2023-03-26T11:02:18.431Z,17.55
2023-03-26T11:04:46.717Z,17.86
2023-03-26T11:07:32.914Z,18.02
2023-03-26T11:10:26.163Z,18.30
2023-03-26T11:14:03.051Z,19.19
2023-03-26T11:16:54.950Z,19.64
2023-03-26T11:19:31.913Z,19.95
2023-03-26T11:22:15.985Z,20.10
2023-03-26T11:24:54.678Z,19.87
2023-03-26T11:27:42.291Z,19.75
2023-03-26T11:30:29.618Z,19.87
2023-03-26T11:33:00.579Z,20.38
2023-03-26T11:35:41.818Z,21.09
2023-03-26T11:38:22.188Z,22.11
2023-03-26T11:40:55.937Z,22.36
2023-03-26T11:43:50.576Z,22.46
2023-03-26T11:46:21.463Z,22.46
2023-03-26T11:48:58.261Z,22.07
2023-03-26T11:51:26.782Z,21.49
2023-03-26T11:53:55.273Z,21.17
2023-03-26T11:56:23.660Z,20.83
2023-03-26T11:58:54.704Z,20.59
2023-03-26T12:01:32.348Z,20.34
2023-03-26T12:04:07.242Z,20.18
2023-03-26T12:06:36.411Z,19.98
2023-03-26T12:09:04.909Z,19.75
2023-03-26T12:11:35.543Z,19.52
2023-03-26T12:14:05.866Z,19.53
2023-03-26T12:16:34.687Z,19.77
2023-03-26T12:19:06.332Z,19.80
2023-03-26T12:21:45.144Z,19.80
2023-03-26T12:24:33.800Z,19.63
2023-03-26T12:27:20.696Z,19.05
2023-03-26T12:29:52.765Z,18.73
2023-03-26T12:32:22.552Z,18.52
2023-03-26T12:34:53.698Z,18.30
2023-03-26T12:37:35.928Z,18.21
2023-03-26T12:40:15.161Z,18.18
2023-03-26T12:44:49.265Z,18.21
2023-03-26T12:45:42.489Z,18.15
2023-03-26T12:48:13.239Z,18.19
2023-03-26T12:51:00.460Z,18.28
2023-03-26T12:53:34.604Z,18.39
2023-03-26T12:56:13.522Z,18.27
2023-03-26T12:58:44.358Z,18.03
2023-03-26T13:01:28.119Z,17.84
2023-03-26T13:03:56.893Z,17.32
2023-03-26T13:06:25.073Z,16.75
2023-03-26T13:08:53.453Z,16.17
2023-03-26T13:11:36.785Z,15.53
2023-03-26T13:14:15.985Z,14.88
2023-03-26T13:17:07.473Z,14.32
2023-03-26T13:19:48.500Z,13.72
2023-03-26T13:22:31.928Z,13.13
2023-03-26T13:25:07.732Z,12.63
2023-03-26T13:27:36.058Z,12.26
2023-03-26T13:30:04.143Z,12.04
2023-03-26T13:32:50.870Z,11.98
2023-03-26T13:35:29.995Z,12.02
2023-03-26T13:38:11.860Z,12.23
2023-03-26T13:40:42.804Z,12.90
2023-03-26T13:43:10.868Z,13.52
2023-03-26T13:45:51.987Z,13.83
2023-03-26T13:48:24.428Z,14.01
2023-03-26T13:51:11.437Z,14.15
2023-03-26T13:53:59.269Z,14.21
2023-03-26T13:56:38.805Z,14.81
2023-03-26T13:59:16.399Z,15.25
2023-03-26T14:01:51.276Z,16.38
2023-03-26T14:04:32.671Z,17.48
2023-03-26T14:07:23.901Z,18.79
2023-03-26T14:09:54.762Z,18.81
2023-03-26T14:12:38.602Z,18.53
2023-03-26T14:15:11.363Z,18.35
2023-03-26T14:17:47.692Z,18.53
2023-03-26T14:20:20.115Z,18.79
2023-03-26T14:23:06.923Z,18.59
2023-03-26T14:25:47.288Z,19.17
2023-03-26T14:28:21.740Z,19.37
2023-03-26T14:30:56.687Z,18.99
2023-03-26T14:33:28.213Z,18.78
2023-03-26T14:36:00.951Z,18.74
2023-03-26T14:38:59.451Z,19.11
2023-03-26T14:41:48.011Z,20.92
2023-03-26T14:44:48.193Z,21.69
2023-03-26T14:47:19.675Z,21.68
2023-03-26T14:50:04.332Z,21.12
2023-03-26T14:52:41.602Z,20.65
2023-03-26T14:55:22.569Z,20.16
2023-03-26T14:58:13.980Z,20.16
2023-03-26T15:01:17.714Z,20.22
2023-03-26T15:03:52.203Z,21.25
2023-03-26T15:06:23.239Z,22.14
2023-03-26T15:09:09.875Z,23.31
2023-03-26T15:12:13.226Z,24.48
2023-03-26T15:14:42.422Z,25.22
2023-03-26T15:17:29.382Z,25.25
2023-03-26T15:20:16.679Z,25.91
2023-03-26T15:22:48.812Z,26.62
2023-03-26T15:25:19.960Z,27.05
2023-03-26T15:27:54.279Z,27.48
2023-03-26T15:30:35.072Z,27.75
2023-03-26T15:33:30.037Z,27.89
2023-03-26T15:36:11.315Z,27.02
2023-03-26T15:38:57.797Z,25.46
2023-03-26T15:41:35.033Z,23.87
2023-03-26T15:44:26.722Z,22.25
2023-03-26T15:46:55.525Z,20.94
2023-03-26T15:49:44.150Z,20.32
2023-03-26T15:52:28.481Z,19.65
2023-03-26T15:55:04.170Z,19.24
2023-03-26T15:57:58.077Z,18.88
2023-03-26T16:00:29.279Z,18.38
2023-03-26T16:03:10.349Z,17.99
2023-03-26T16:05:52.617Z,17.67
2023-03-26T16:08:26.651Z,17.40
2023-03-26T16:10:59.129Z,17.12
2023-03-26T16:13:31.612Z,16.78
2023-03-26T16:16:02.886Z,16.42
2023-03-26T16:18:31.582Z,16.08
2023-03-26T16:21:32.011Z,15.78
2023-03-26T16:24:03.748Z,15.39
2023-03-26T16:26:31.906Z,15.15
2023-03-26T16:29:14.484Z,14.92
2023-03-26T16:32:01.765Z,14.70
2023-03-26T16:34:50.782Z,14.53
2023-03-26T16:37:32.344Z,14.42
2023-03-26T16:40:20.934Z,14.32
2023-03-26T16:43:07.837Z,14.16
2023-03-26T16:45:55.140Z,13.95
2023-03-26T16:48:23.418Z,13.77
2023-03-26T16:50:56.927Z,13.59
2023-03-26T16:53:36.228Z,13.41
2023-03-26T16:56:28.121Z,13.28
2023-03-26T16:59:00.536Z,13.12
2023-03-26T17:01:28.651Z,13.00
2023-03-26T17:03:57.248Z,12.89
2023-03-26T17:06:46.107Z,12.80
2023-03-26T17:09:23.672Z,12.69
2023-03-26T17:12:06.892Z,12.50
2023-03-26T17:14:54.504Z,12.30
2023-03-26T17:17:22.815Z,12.13
2023-03-26T17:19:50.963Z,12.02
2023-03-26T17:22:55.407Z,11.94
2023-03-26T17:25:31.222Z,11.79
2023-03-26T17:28:29.182Z,11.70
2023-03-26T17:31:12.545Z,11.55
2023-03-26T17:33:41.108Z,11.37
2023-03-26T17:36:11.980Z,11.24
2023-03-26T17:38:40.533Z,11.20
2023-03-26T17:41:17.664Z,11.19
2023-03-26T17:43:52.856Z,11.14
2023-03-26T17:46:37.825Z,11.04
2023-03-26T17:49:12.481Z,10.93
2023-03-26T17:51:40.730Z,10.81
2023-03-26T17:54:41.349Z,10.67
2023-03-26T17:57:29.578Z,10.59
2023-03-26T17:59:59.148Z,10.53
2023-03-26T18:02:37.142Z,10.46
2023-03-26T18:05:08.811Z,10.37
2023-03-26T18:07:49.525Z,10.28
2023-03-26T18:10:20.976Z,10.15
2023-03-26T18:12:50.802Z,10.02
2023-03-26T18:15:26.456Z,9.96
2023-03-26T18:18:13.347Z,9.91
2023-03-26T18:20:44.085Z,9.83
2023-03-26T18:23:20.350Z,9.75
2023-03-26T18:25:58.199Z,9.68
2023-03-26T18:28:31.101Z,9.61
2023-03-26T18:31:08.533Z,9.52
2023-03-26T18:33:44.187Z,9.47
2023-03-26T18:36:13.886Z,9.43
2023-03-26T18:38:43.366Z,9.38
2023-03-26T18:41:30.918Z,9.35
2023-03-26T18:44:04.332Z,9.34
2023-03-26T18:46:33.540Z,9.36
2023-03-26T18:49:03.175Z,9.27
2023-03-26T18:51:32.028Z,9.18
2023-03-26T18:54:02.966Z,9.14
2023-03-26T18:56:31.452Z,9.08
2023-03-26T18:59:00.773Z,9.04
2023-03-26T19:01:33.483Z,8.98
2023-03-26T19:04:05.346Z,8.92
2023-03-26T19:06:35.935Z,8.88
2023-03-26T19:09:23.897Z,8.83
2023-03-26T19:12:08.387Z,8.77
2023-03-26T19:14:51.356Z,8.70
2023-03-26T19:17:19.834Z,8.62
2023-03-26T19:19:49.541Z,8.55
2023-03-26T19:22:20.188Z,8.48
2023-03-26T19:24:50.510Z,8.44
2023-03-26T19:27:19.509Z,8.37
2023-03-26T19:29:47.889Z,8.32
2023-03-26T19:32:18.030Z,8.27
2023-03-26T19:34:47.427Z,8.21
2023-03-26T19:37:21.560Z,8.15
2023-03-26T19:39:51.562Z,8.10
2023-03-26T19:42:43.869Z,8.04
2023-03-26T19:45:20.668Z,7.98
2023-03-26T19:47:57.306Z,7.93
2023-03-26T19:50:37.083Z,7.90
2023-03-26T19:53:15.480Z,7.86
2023-03-26T19:55:55.969Z,7.80
2023-03-26T19:58:26.091Z,7.77
2023-03-26T20:00:56.552Z,7.74
2023-03-26T20:03:29.913Z,7.68
2023-03-26T20:05:58.300Z,7.62
2023-03-26T20:08:29.380Z,7.58
2023-03-26T20:10:58.669Z,7.55
2023-03-26T20:13:27.645Z,7.51
2023-03-26T20:16:10.911Z,7.48
2023-03-26T20:18:39.368Z,7.44
2023-03-26T20:21:13.779Z,7.43
2023-03-26T20:23:43.284Z,7.40
2023-03-26T20:26:15.462Z,7.38
2023-03-26T20:28:48.046Z,7.35
2023-03-26T20:31:25.499Z,7.33
2023-03-26T20:33:54.353Z,7.29
2023-03-26T20:36:33.591Z,7.24
2023-03-26T20:39:06.185Z,7.19
2023-03-26T20:41:35.539Z,7.17
2023-03-26T20:44:06.278Z,7.13
2023-03-26T20:46:34.893Z,7.11
2023-03-26T20:49:03.465Z,7.05
2023-03-26T20:51:32.036Z,6.97
2023-03-26T20:54:00.838Z,6.87
2023-03-26T20:56:29.113Z,6.80
2023-03-26T21:01:29.462Z,6.70
2023-03-26T21:03:57.655Z,6.69
2023-03-26T21:06:25.822Z,6.64
2023-03-26T21:08:54.207Z,6.60
2023-03-26T21:11:26.365Z,6.57
2023-03-26T21:14:00.110Z,6.55
2023-03-26T21:16:28.631Z,6.53
2023-03-26T21:18:57.844Z,6.53
2023-03-26T21:21:26.152Z,6.50
2023-03-26T21:24:10.607Z,6.45
2023-03-26T21:26:45.411Z,6.39
2023-03-26T21:29:13.929Z,6.35
2023-03-26T21:31:42.519Z,6.33
2023-03-26T21:34:13.400Z,6.33
2023-03-26T21:36:42.213Z,6.30
2023-03-26T21:39:11.247Z,6.24
2023-03-26T21:41:43.791Z,6.19
2023-03-26T21:44:14.340Z,6.16
2023-03-26T21:46:43.824Z,6.14
2023-03-26T21:49:13.428Z,6.12
2023-03-26T21:51:42.937Z,6.11
2023-03-26T21:54:25.004Z,6.10
2023-03-26T21:57:02.947Z,6.06
2023-03-26T21:59:51.978Z,6.04
2023-03-26T22:02:29.358Z,6.03
2023-03-26T22:05:00.894Z,6.03
2023-03-26T22:07:48.104Z,6.01
2023-03-26T22:10:16.608Z,6.00
2023-03-26T22:12:44.876Z,6.00
2023-03-26T22:15:14.085Z,5.97
2023-03-26T22:17:43.123Z,5.94
2023-03-26T22:20:12.817Z,5.93
2023-03-26T22:22:48.948Z,5.91
2023-03-26T22:25:18.368Z,5.89
2023-03-26T22:27:47.423Z,5.85
2023-03-26T22:30:15.865Z,5.81
2023-03-26T22:32:44.916Z,5.79
2023-03-26T22:35:13.332Z,5.79
2023-03-26T22:37:41.925Z,5.78
2023-03-26T22:40:13.068Z,5.80
2023-03-26T22:42:41.496Z,5.79
2023-03-26T22:45:10.354Z,5.77
2023-03-26T22:47:38.974Z,5.72
2023-03-26T22:50:08.526Z,5.71
2023-03-26T22:52:37.033Z,5.69
2023-03-26T22:55:05.739Z,5.67
2023-03-26T22:57:33.912Z,5.61
2023-03-26T23:00:14.059Z,5.57
2023-03-26T23:02:45.076Z,5.52
2023-03-26T23:05:14.409Z,5.46
2023-03-26T23:07:43.712Z,5.44
2023-03-26T23:10:12.406Z,5.46
2023-03-26T23:12:41.918Z,5.44
2023-03-26T23:15:11.230Z,5.43
2023-03-26T23:17:39.818Z,5.42
2023-03-26T23:20:15.557Z,5.40
2023-03-26T23:22:44.375Z,5.38
2023-03-26T23:25:12.532Z,5.35
2023-03-26T23:27:41.566Z,5.34
2023-03-26T23:30:11.110Z,5.33
2023-03-26T23:32:39.353Z,5.33
2023-03-26T23:35:08.077Z,5.32
2023-03-26T23:37:36.298Z,5.30
2023-03-26T23:40:10.356Z,5.25
2023-03-26T23:42:38.707Z,5.21
2023-03-26T23:45:08.681Z,5.16
2023-03-26T23:47:37.526Z,5.13
2023-03-26T23:50:06.399Z,5.10
2023-03-26T23:52:34.584Z,5.07
2023-03-26T23:55:03.141Z,5.06
2023-03-26T23:57:31.765Z,5.06
2023-03-26T23:59:59.808Z,5.05
